Eghezee, Belgium
Current Conditions -  °F | °C
As of 8:25 PM on Thursday 27 Nov 2014 (Local Time) from EBBE Reporting Station
Broken Clouds Broken Clouds  
Wind Chill: 45°   Ceiling: 1900
Heat Index: 48°   Visibility: 6mi
Dew Point: 46°   Wind: 7mph
Humidity: 93%   Direction: 110°ESE
Pressure: 29.68"   Gusts: NA
Location:  50.59°N, 4.91°E
Report Text: EBBE 271925Z AUTO 11006KT 9999 FEW015/// BKN019/// BKN024/// 09/08 Q1005 WHT
Loading
Personal Weather Stations






























Interactive Weather Map New forecast layout! Learn more

10-Day Weather Forecast

Advertisements
Track Severe Weather on mobile